sensor_id;sensor_type;location;lat;lon;timestamp;temperature;humidity
23231;DHT22;11784;49.818;8.632;2022-11-15T00:00:46;15.40;78.90
23231;DHT22;11784;49.818;8.632;2022-11-15T00:03:19;15.40;79.10
23231;DHT22;11784;49.818;8.632;2022-11-15T00:05:45;15.40;78.90
23231;DHT22;11784;49.818;8.632;2022-11-15T00:08:12;15.40;79.20
23231;DHT22;11784;49.818;8.632;2022-11-15T00:10:38;15.40;79.20
23231;DHT22;11784;49.818;8.632;2022-11-15T00:13:08;15.40;79.10
23231;DHT22;11784;49.818;8.632;2022-11-15T00:15:38;15.40;79.20
23231;DHT22;11784;49.818;8.632;2022-11-15T00:18:05;15.40;79.30
23231;DHT22;11784;49.818;8.632;2022-11-15T00:20:33;15.40;79.20
23231;DHT22;11784;49.818;8.632;2022-11-15T00:22:59;15.40;79.10
23231;DHT22;11784;49.818;8.632;2022-11-15T00:25:24;15.40;78.90
23231;DHT22;11784;49.818;8.632;2022-11-15T00:27:50;15.30;79.10
23231;DHT22;11784;49.818;8.632;2022-11-15T00:30:17;15.40;79.70
23231;DHT22;11784;49.818;8.632;2022-11-15T00:32:42;15.40;79.10
23231;DHT22;11784;49.818;8.632;2022-11-15T00:35:08;15.40;79.40
23231;DHT22;11784;49.818;8.632;2022-11-15T00:37:33;15.40;79.40
23231;DHT22;11784;49.818;8.632;2022-11-15T00:39:59;15.40;79.30
23231;DHT22;11784;49.818;8.632;2022-11-15T00:42:24;15.40;79.30
23231;DHT22;11784;49.818;8.632;2022-11-15T00:44:50;15.40;79.40
23231;DHT22;11784;49.818;8.632;2022-11-15T00:47:15;15.40;79.50
23231;DHT22;11784;49.818;8.632;2022-11-15T00:49:41;15.40;79.40
23231;DHT22;11784;49.818;8.632;2022-11-15T00:52:07;15.40;79.40
23231;DHT22;11784;49.818;8.632;2022-11-15T00:54:32;15.40;79.30
23231;DHT22;11784;49.818;8.632;2022-11-15T00:56:58;15.40;79.70
23231;DHT22;11784;49.818;8.632;2022-11-15T00:59:23;15.40;79.30
23231;DHT22;11784;49.818;8.632;2022-11-15T01:01:49;15.40;79.50
23231;DHT22;11784;49.818;8.632;2022-11-15T01:04:14;15.40;79.60
23231;DHT22;11784;49.818;8.632;2022-11-15T01:06:40;15.40;79.80
23231;DHT22;11784;49.818;8.632;2022-11-15T01:09:05;15.40;79.70
23231;DHT22;11784;49.818;8.632;2022-11-15T01:11:31;15.40;79.40
23231;DHT22;11784;49.818;8.632;2022-11-15T01:13:56;15.40;79.40
23231;DHT22;11784;49.818;8.632;2022-11-15T01:16:22;15.40;79.50
23231;DHT22;11784;49.818;8.632;2022-11-15T01:18:47;15.40;79.80
23231;DHT22;11784;49.818;8.632;2022-11-15T01:21:16;15.40;79.90
23231;DHT22;11784;49.818;8.632;2022-11-15T01:23:42;15.40;80.00
23231;DHT22;11784;49.818;8.632;2022-11-15T01:26:11;15.40;81.10
23231;DHT22;11784;49.818;8.632;2022-11-15T01:28:39;15.40;80.40
23231;DHT22;11784;49.818;8.632;2022-11-15T01:31:09;15.30;80.40
23231;DHT22;11784;49.818;8.632;2022-11-15T01:33:36;15.40;80.90
23231;DHT22;11784;49.818;8.632;2022-11-15T01:36:11;15.30;81.40
23231;DHT22;11784;49.818;8.632;2022-11-15T01:38:37;15.30;81.40
23231;DHT22;11784;49.818;8.632;2022-11-15T01:41:03;15.30;81.70
23231;DHT22;11784;49.818;8.632;2022-11-15T01:43:32;15.20;81.70
23231;DHT22;11784;49.818;8.632;2022-11-15T01:46:02;15.20;82.20
23231;DHT22;11784;49.818;8.632;2022-11-15T01:48:34;15.20;82.80
23231;DHT22;11784;49.818;8.632;2022-11-15T01:51:01;15.20;83.20
23231;DHT22;11784;49.818;8.632;2022-11-15T01:53:29;15.20;83.60
23231;DHT22;11784;49.818;8.632;2022-11-15T01:55:57;15.10;83.70
23231;DHT22;11784;49.818;8.632;2022-11-15T01:58:24;15.20;84.10
23231;DHT22;11784;49.818;8.632;2022-11-15T02:00:50;15.20;84.50
23231;DHT22;11784;49.818;8.632;2022-11-15T02:03:16;15.20;84.50
23231;DHT22;11784;49.818;8.632;2022-11-15T02:05:41;15.20;84.80
23231;DHT22;11784;49.818;8.632;2022-11-15T02:08:09;15.20;85.20
23231;DHT22;11784;49.818;8.632;2022-11-15T02:10:46;15.20;85.20
23231;DHT22;11784;49.818;8.632;2022-11-15T02:13:14;15.30;85.20
23231;DHT22;11784;49.818;8.632;2022-11-15T02:15:47;15.30;85.40
23231;DHT22;11784;49.818;8.632;2022-11-15T02:18:26;15.30;85.30
23231;DHT22;11784;49.818;8.632;2022-11-15T02:35:04;15.30;84.30
23231;DHT22;11784;49.818;8.632;2022-11-15T02:40:42;15.20;83.80
23231;DHT22;11784;49.818;8.632;2022-11-15T02:43:11;15.20;83.70
23231;DHT22;11784;49.818;8.632;2022-11-15T02:46:13;15.20;83.90
23231;DHT22;11784;49.818;8.632;2022-11-15T02:48:41;15.10;83.90
23231;DHT22;11784;49.818;8.632;2022-11-15T02:51:08;15.10;83.50
23231;DHT22;11784;49.818;8.632;2022-11-15T02:53:34;15.10;83.60
23231;DHT22;11784;49.818;8.632;2022-11-15T02:56:00;15.10;83.80
23231;DHT22;11784;49.818;8.632;2022-11-15T02:58:42;15.10;83.70
23231;DHT22;11784;49.818;8.632;2022-11-15T03:01:51;15.10;83.70
23231;DHT22;11784;49.818;8.632;2022-11-15T03:04:23;15.00;83.60
23231;DHT22;11784;49.818;8.632;2022-11-15T03:06:59;15.00;83.80
23231;DHT22;11784;49.818;8.632;2022-11-15T03:09:34;14.90;84.10
23231;DHT22;11784;49.818;8.632;2022-11-15T03:12:28;14.90;84.30
23231;DHT22;11784;49.818;8.632;2022-11-15T03:15:06;14.90;84.50
23231;DHT22;11784;49.818;8.632;2022-11-15T03:17:37;14.90;84.80
23231;DHT22;11784;49.818;8.632;2022-11-15T03:20:06;14.90;85.60
23231;DHT22;11784;49.818;8.632;2022-11-15T03:22:36;14.90;84.80
23231;DHT22;11784;49.818;8.632;2022-11-15T03:25:06;14.90;84.70
23231;DHT22;11784;49.818;8.632;2022-11-15T03:27:43;14.90;84.80
23231;DHT22;11784;49.818;8.632;2022-11-15T03:30:11;14.80;85.00
23231;DHT22;11784;49.818;8.632;2022-11-15T03:32:53;14.80;86.10
23231;DHT22;11784;49.818;8.632;2022-11-15T03:35:22;14.80;85.90
23231;DHT22;11784;49.818;8.632;2022-11-15T03:40:33;14.80;85.70
23231;DHT22;11784;49.818;8.632;2022-11-15T03:43:29;14.80;85.50
23231;DHT22;11784;49.818;8.632;2022-11-15T03:46:06;14.80;85.40
23231;DHT22;11784;49.818;8.632;2022-11-15T03:48:43;14.80;85.80
23231;DHT22;11784;49.818;8.632;2022-11-15T03:51:10;14.80;86.00
23231;DHT22;11784;49.818;8.632;2022-11-15T03:53:36;14.80;86.10
23231;DHT22;11784;49.818;8.632;2022-11-15T03:56:02;14.80;86.10
23231;DHT22;11784;49.818;8.632;2022-11-15T03:58:27;14.80;86.00
23231;DHT22;11784;49.818;8.632;2022-11-15T04:00:53;14.80;86.10
23231;DHT22;11784;49.818;8.632;2022-11-15T04:03:18;14.80;86.30
23231;DHT22;11784;49.818;8.632;2022-11-15T04:05:44;14.80;86.00
23231;DHT22;11784;49.818;8.632;2022-11-15T04:08:09;14.80;86.20
23231;DHT22;11784;49.818;8.632;2022-11-15T04:10:34;14.80;86.30
23231;DHT22;11784;49.818;8.632;2022-11-15T04:13:02;14.80;86.10
23231;DHT22;11784;49.818;8.632;2022-11-15T04:15:28;14.80;86.00
23231;DHT22;11784;49.818;8.632;2022-11-15T04:17:56;14.90;86.10
23231;DHT22;11784;49.818;8.632;2022-11-15T04:20:27;14.90;85.60
23231;DHT22;11784;49.818;8.632;2022-11-15T04:23:19;14.90;85.10
23231;DHT22;11784;49.818;8.632;2022-11-15T04:26:06;14.90;84.80
23231;DHT22;11784;49.818;8.632;2022-11-15T04:28:33;14.90;85.10
23231;DHT22;11784;49.818;8.632;2022-11-15T04:30:59;14.90;84.70
23231;DHT22;11784;49.818;8.632;2022-11-15T04:33:24;15.00;84.60
23231;DHT22;11784;49.818;8.632;2022-11-15T04:35:50;15.00;84.40
23231;DHT22;11784;49.818;8.632;2022-11-15T04:38:35;15.00;83.90
23231;DHT22;11784;49.818;8.632;2022-11-15T04:41:02;15.00;83.80
23231;DHT22;11784;49.818;8.632;2022-11-15T04:43:29;15.10;83.80
23231;DHT22;11784;49.818;8.632;2022-11-15T04:45:54;15.10;83.80
23231;DHT22;11784;49.818;8.632;2022-11-15T04:48:20;15.10;83.20
23231;DHT22;11784;49.818;8.632;2022-11-15T04:50:48;15.10;83.10
23231;DHT22;11784;49.818;8.632;2022-11-15T04:53:13;15.10;83.90
23231;DHT22;11784;49.818;8.632;2022-11-15T04:55:39;15.10;84.10
23231;DHT22;11784;49.818;8.632;2022-11-15T04:58:04;15.10;84.40
23231;DHT22;11784;49.818;8.632;2022-11-15T05:00:30;15.10;85.00
23231;DHT22;11784;49.818;8.632;2022-11-15T05:02:56;15.10;85.90
23231;DHT22;11784;49.818;8.632;2022-11-15T05:05:41;15.10;86.20
23231;DHT22;11784;49.818;8.632;2022-11-15T05:08:07;15.10;86.90
23231;DHT22;11784;49.818;8.632;2022-11-15T05:10:32;15.10;87.20
23231;DHT22;11784;49.818;8.632;2022-11-15T05:12:58;15.10;87.40
23231;DHT22;11784;49.818;8.632;2022-11-15T05:15:26;15.10;87.60
23231;DHT22;11784;49.818;8.632;2022-11-15T05:17:56;15.10;87.20
23231;DHT22;11784;49.818;8.632;2022-11-15T05:20:22;15.10;87.50
23231;DHT22;11784;49.818;8.632;2022-11-15T05:22:47;15.10;88.00
23231;DHT22;11784;49.818;8.632;2022-11-15T05:25:12;15.10;88.10
23231;DHT22;11784;49.818;8.632;2022-11-15T05:27:38;15.10;88.10
23231;DHT22;11784;49.818;8.632;2022-11-15T05:30:04;15.00;88.10
23231;DHT22;11784;49.818;8.632;2022-11-15T05:32:29;15.00;88.60
23231;DHT22;11784;49.818;8.632;2022-11-15T05:34:55;15.00;88.90
23231;DHT22;11784;49.818;8.632;2022-11-15T05:37:21;15.00;88.70
23231;DHT22;11784;49.818;8.632;2022-11-15T05:39:46;15.00;88.40
23231;DHT22;11784;49.818;8.632;2022-11-15T05:42:14;15.00;88.90
23231;DHT22;11784;49.818;8.632;2022-11-15T05:44:43;15.00;89.60
23231;DHT22;11784;49.818;8.632;2022-11-15T05:47:14;15.00;90.00
23231;DHT22;11784;49.818;8.632;2022-11-15T05:49:43;15.00;90.20
23231;DHT22;11784;49.818;8.632;2022-11-15T05:52:11;15.00;90.20
23231;DHT22;11784;49.818;8.632;2022-11-15T05:54:38;15.00;90.40
23231;DHT22;11784;49.818;8.632;2022-11-15T05:57:04;15.00;90.40
23231;DHT22;11784;49.818;8.632;2022-11-15T05:59:31;14.90;90.40
23231;DHT22;11784;49.818;8.632;2022-11-15T06:01:57;14.90;90.60
23231;DHT22;11784;49.818;8.632;2022-11-15T06:04:23;14.90;90.70
23231;DHT22;11784;49.818;8.632;2022-11-15T06:06:49;14.90;90.70
23231;DHT22;11784;49.818;8.632;2022-11-15T06:09:14;14.90;90.60
23231;DHT22;11784;49.818;8.632;2022-11-15T06:11:40;14.90;90.60
23231;DHT22;11784;49.818;8.632;2022-11-15T06:14:05;14.80;90.70
23231;DHT22;11784;49.818;8.632;2022-11-15T06:16:31;14.80;90.90
23231;DHT22;11784;49.818;8.632;2022-11-15T06:18:56;14.90;91.00
23231;DHT22;11784;49.818;8.632;2022-11-15T06:21:22;14.90;91.00
23231;DHT22;11784;49.818;8.632;2022-11-15T06:23:48;14.90;90.90
23231;DHT22;11784;49.818;8.632;2022-11-15T06:26:13;14.80;90.90
23231;DHT22;11784;49.818;8.632;2022-11-15T06:28:39;14.80;91.10
23231;DHT22;11784;49.818;8.632;2022-11-15T06:31:10;14.80;91.20
23231;DHT22;11784;49.818;8.632;2022-11-15T06:33:39;14.80;91.60
23231;DHT22;11784;49.818;8.632;2022-11-15T06:36:07;14.80;91.30
23231;DHT22;11784;49.818;8.632;2022-11-15T06:38:33;14.80;91.30
23231;DHT22;11784;49.818;8.632;2022-11-15T06:41:04;14.80;91.30
23231;DHT22;11784;49.818;8.632;2022-11-15T06:43:30;14.70;91.30
23231;DHT22;11784;49.818;8.632;2022-11-15T06:45:58;14.70;91.30
23231;DHT22;11784;49.818;8.632;2022-11-15T06:48:23;14.70;91.30
23231;DHT22;11784;49.818;8.632;2022-11-15T06:50:57;14.70;91.40
23231;DHT22;11784;49.818;8.632;2022-11-15T06:53:23;14.60;91.30
23231;DHT22;11784;49.818;8.632;2022-11-15T06:55:49;14.60;91.40
23231;DHT22;11784;49.818;8.632;2022-11-15T06:58:15;14.60;91.30
23231;DHT22;11784;49.818;8.632;2022-11-15T07:00:41;14.50;91.40
23231;DHT22;11784;49.818;8.632;2022-11-15T07:03:06;14.50;91.30
23231;DHT22;11784;49.818;8.632;2022-11-15T07:05:32;14.50;91.40
23231;DHT22;11784;49.818;8.632;2022-11-15T07:07:59;14.50;91.50
23231;DHT22;11784;49.818;8.632;2022-11-15T07:10:25;14.50;91.60
23231;DHT22;11784;49.818;8.632;2022-11-15T07:12:51;14.50;91.60
23231;DHT22;11784;49.818;8.632;2022-11-15T07:15:18;14.50;91.50
23231;DHT22;11784;49.818;8.632;2022-11-15T07:17:44;14.50;91.70
23231;DHT22;11784;49.818;8.632;2022-11-15T07:20:10;14.50;91.70
23231;DHT22;11784;49.818;8.632;2022-11-15T07:22:36;14.50;91.70
23231;DHT22;11784;49.818;8.632;2022-11-15T07:25:02;14.50;91.70
23231;DHT22;11784;49.818;8.632;2022-11-15T07:27:28;14.60;91.80
23231;DHT22;11784;49.818;8.632;2022-11-15T07:29:53;14.60;91.80
23231;DHT22;11784;49.818;8.632;2022-11-15T07:32:19;14.70;91.90
23231;DHT22;11784;49.818;8.632;2022-11-15T07:34:44;14.70;91.90
23231;DHT22;11784;49.818;8.632;2022-11-15T07:37:11;14.70;92.00
23231;DHT22;11784;49.818;8.632;2022-11-15T07:39:36;14.80;91.90
23231;DHT22;11784;49.818;8.632;2022-11-15T07:42:02;14.80;91.90
23231;DHT22;11784;49.818;8.632;2022-11-15T07:44:46;14.80;91.80
23231;DHT22;11784;49.818;8.632;2022-11-15T07:47:12;14.90;91.80
23231;DHT22;11784;49.818;8.632;2022-11-15T07:49:37;14.90;91.80
23231;DHT22;11784;49.818;8.632;2022-11-15T07:52:03;14.90;91.70
23231;DHT22;11784;49.818;8.632;2022-11-15T07:54:29;14.90;91.50
23231;DHT22;11784;49.818;8.632;2022-11-15T07:56:54;15.00;91.40
23231;DHT22;11784;49.818;8.632;2022-11-15T07:59:20;15.00;91.40
23231;DHT22;11784;49.818;8.632;2022-11-15T08:01:45;15.00;91.20
23231;DHT22;11784;49.818;8.632;2022-11-15T08:04:11;15.10;91.40
23231;DHT22;11784;49.818;8.632;2022-11-15T08:06:37;15.10;91.70
23231;DHT22;11784;49.818;8.632;2022-11-15T08:09:02;15.10;91.50
23231;DHT22;11784;49.818;8.632;2022-11-15T08:11:28;15.20;91.20
23231;DHT22;11784;49.818;8.632;2022-11-15T08:13:54;15.20;91.00
23231;DHT22;11784;49.818;8.632;2022-11-15T08:16:19;15.30;90.90
23231;DHT22;11784;49.818;8.632;2022-11-15T08:18:45;15.30;90.60
23231;DHT22;11784;49.818;8.632;2022-11-15T08:21:13;15.30;90.50
23231;DHT22;11784;49.818;8.632;2022-11-15T08:23:40;15.40;90.50
23231;DHT22;11784;49.818;8.632;2022-11-15T08:26:05;15.40;90.40
23231;DHT22;11784;49.818;8.632;2022-11-15T08:28:31;15.40;89.90
23231;DHT22;11784;49.818;8.632;2022-11-15T08:30:57;15.50;88.60
23231;DHT22;11784;49.818;8.632;2022-11-15T08:33:23;15.50;88.90
23231;DHT22;11784;49.818;8.632;2022-11-15T08:35:48;15.50;88.30
23231;DHT22;11784;49.818;8.632;2022-11-15T08:38:14;15.50;88.30
23231;DHT22;11784;49.818;8.632;2022-11-15T08:40:39;15.50;88.20
23231;DHT22;11784;49.818;8.632;2022-11-15T08:43:05;15.50;87.50
23231;DHT22;11784;49.818;8.632;2022-11-15T08:45:33;15.50;87.80
23231;DHT22;11784;49.818;8.632;2022-11-15T08:48:01;15.50;88.00
23231;DHT22;11784;49.818;8.632;2022-11-15T08:50:27;15.50;88.10
23231;DHT22;11784;49.818;8.632;2022-11-15T08:52:52;15.50;87.80
23231;DHT22;11784;49.818;8.632;2022-11-15T08:55:18;15.60;87.90
23231;DHT22;11784;49.818;8.632;2022-11-15T08:57:43;15.60;87.30
23231;DHT22;11784;49.818;8.632;2022-11-15T09:00:09;15.60;87.00
23231;DHT22;11784;49.818;8.632;2022-11-15T09:02:38;15.70;86.40
23231;DHT22;11784;49.818;8.632;2022-11-15T09:05:04;15.70;87.00
23231;DHT22;11784;49.818;8.632;2022-11-15T09:07:30;15.70;87.30
23231;DHT22;11784;49.818;8.632;2022-11-15T09:09:57;15.70;86.70
23231;DHT22;11784;49.818;8.632;2022-11-15T09:12:22;15.80;86.70
23231;DHT22;11784;49.818;8.632;2022-11-15T09:14:48;15.90;87.00
23231;DHT22;11784;49.818;8.632;2022-11-15T09:17:13;15.90;86.60
23231;DHT22;11784;49.818;8.632;2022-11-15T09:19:39;15.90;86.60
23231;DHT22;11784;49.818;8.632;2022-11-15T09:22:08;16.00;86.20
23231;DHT22;11784;49.818;8.632;2022-11-15T09:24:34;15.90;86.70
23231;DHT22;11784;49.818;8.632;2022-11-15T09:27:00;16.00;87.00
23231;DHT22;11784;49.818;8.632;2022-11-15T09:29:26;16.00;86.80
23231;DHT22;11784;49.818;8.632;2022-11-15T09:31:54;16.10;86.80
23231;DHT22;11784;49.818;8.632;2022-11-15T09:34:19;16.10;86.20
23231;DHT22;11784;49.818;8.632;2022-11-15T09:36:46;16.10;85.70
23231;DHT22;11784;49.818;8.632;2022-11-15T09:39:11;16.10;86.00
23231;DHT22;11784;49.818;8.632;2022-11-15T09:42:02;16.10;86.80
23231;DHT22;11784;49.818;8.632;2022-11-15T09:44:41;16.20;87.00
23231;DHT22;11784;49.818;8.632;2022-11-15T09:47:28;16.20;86.10
23231;DHT22;11784;49.818;8.632;2022-11-15T09:49:59;16.20;86.90
23231;DHT22;11784;49.818;8.632;2022-11-15T09:52:26;16.20;86.70
23231;DHT22;11784;49.818;8.632;2022-11-15T09:54:53;16.30;86.60
23231;DHT22;11784;49.818;8.632;2022-11-15T09:57:29;16.30;86.50
23231;DHT22;11784;49.818;8.632;2022-11-15T10:05:15;16.40;86.70
23231;DHT22;11784;49.818;8.632;2022-11-15T10:08:10;16.40;86.50
23231;DHT22;11784;49.818;8.632;2022-11-15T10:10:43;16.50;86.30
23231;DHT22;11784;49.818;8.632;2022-11-15T10:13:16;16.50;85.50
23231;DHT22;11784;49.818;8.632;2022-11-15T10:15:44;16.60;85.70
23231;DHT22;11784;49.818;8.632;2022-11-15T10:18:29;16.60;86.00
23231;DHT22;11784;49.818;8.632;2022-11-15T10:23:53;16.60;84.50
23231;DHT22;11784;49.818;8.632;2022-11-15T10:26:18;16.60;85.10
23231;DHT22;11784;49.818;8.632;2022-11-15T10:28:44;16.60;85.10
23231;DHT22;11784;49.818;8.632;2022-11-15T10:31:27;16.70;85.00
23231;DHT22;11784;49.818;8.632;2022-11-15T10:34:19;16.70;84.60
23231;DHT22;11784;49.818;8.632;2022-11-15T10:36:56;16.70;84.80
23231;DHT22;11784;49.818;8.632;2022-11-15T10:39:22;16.70;84.70
23231;DHT22;11784;49.818;8.632;2022-11-15T10:41:49;16.70;84.90
23231;DHT22;11784;49.818;8.632;2022-11-15T10:44:28;16.70;84.60
23231;DHT22;11784;49.818;8.632;2022-11-15T10:49:27;16.70;84.50
23231;DHT22;11784;49.818;8.632;2022-11-15T10:54:37;16.70;85.70
23231;DHT22;11784;49.818;8.632;2022-11-15T10:57:12;16.70;86.00
23231;DHT22;11784;49.818;8.632;2022-11-15T10:59:39;16.70;85.70
23231;DHT22;11784;49.818;8.632;2022-11-15T11:02:56;16.70;85.80
23231;DHT22;11784;49.818;8.632;2022-11-15T11:05:30;16.70;86.10
23231;DHT22;11784;49.818;8.632;2022-11-15T11:08:01;16.70;86.10
23231;DHT22;11784;49.818;8.632;2022-11-15T11:10:28;16.70;86.80
23231;DHT22;11784;49.818;8.632;2022-11-15T11:12:53;16.80;86.40
23231;DHT22;11784;49.818;8.632;2022-11-15T11:15:19;16.80;86.60
23231;DHT22;11784;49.818;8.632;2022-11-15T11:17:51;16.80;86.30
23231;DHT22;11784;49.818;8.632;2022-11-15T11:20:40;16.90;86.70
23231;DHT22;11784;49.818;8.632;2022-11-15T11:29:12;17.00;86.70
23231;DHT22;11784;49.818;8.632;2022-11-15T11:39:44;17.10;85.70
23231;DHT22;11784;49.818;8.632;2022-11-15T11:42:44;17.10;85.70
23231;DHT22;11784;49.818;8.632;2022-11-15T11:47:51;17.20;85.00
23231;DHT22;11784;49.818;8.632;2022-11-15T11:50:26;17.20;84.70
23231;DHT22;11784;49.818;8.632;2022-11-15T11:53:09;17.30;83.10
23231;DHT22;11784;49.818;8.632;2022-11-15T11:55:45;17.30;83.00
23231;DHT22;11784;49.818;8.632;2022-11-15T11:58:22;17.30;82.30
23231;DHT22;11784;49.818;8.632;2022-11-15T12:06:31;17.30;81.70
23231;DHT22;11784;49.818;8.632;2022-11-15T12:09:18;17.40;82.00
23231;DHT22;11784;49.818;8.632;2022-11-15T12:12:05;17.40;81.80
23231;DHT22;11784;49.818;8.632;2022-11-15T12:14:46;17.40;81.60
23231;DHT22;11784;49.818;8.632;2022-11-15T12:17:21;17.40;81.70
23231;DHT22;11784;49.818;8.632;2022-11-15T12:19:48;17.40;81.10
23231;DHT22;11784;49.818;8.632;2022-11-15T12:22:18;17.50;81.30
23231;DHT22;11784;49.818;8.632;2022-11-15T12:27:37;17.50;81.10
23231;DHT22;11784;49.818;8.632;2022-11-15T12:30:12;17.40;81.00
23231;DHT22;11784;49.818;8.632;2022-11-15T12:32:39;17.40;80.40
23231;DHT22;11784;49.818;8.632;2022-11-15T12:35:56;17.40;80.40
23231;DHT22;11784;49.818;8.632;2022-11-15T12:38:49;17.40;81.20
23231;DHT22;11784;49.818;8.632;2022-11-15T12:41:17;17.30;81.00
23231;DHT22;11784;49.818;8.632;2022-11-15T12:43:44;17.20;80.40
23231;DHT22;11784;49.818;8.632;2022-11-15T12:59:50;17.10;82.20
23231;DHT22;11784;49.818;8.632;2022-11-15T13:02:22;17.20;81.90
23231;DHT22;11784;49.818;8.632;2022-11-15T13:04:50;17.20;82.90
23231;DHT22;11784;49.818;8.632;2022-11-15T13:10:00;17.30;82.60
23231;DHT22;11784;49.818;8.632;2022-11-15T13:15:00;17.40;83.30
23231;DHT22;11784;49.818;8.632;2022-11-15T13:17:49;17.50;82.10
23231;DHT22;11784;49.818;8.632;2022-11-15T13:31:03;17.40;81.90
23231;DHT22;11784;49.818;8.632;2022-11-15T13:33:39;17.40;82.00
23231;DHT22;11784;49.818;8.632;2022-11-15T13:36:20;17.40;81.70
23231;DHT22;11784;49.818;8.632;2022-11-15T13:39:04;17.40;82.00
23231;DHT22;11784;49.818;8.632;2022-11-15T13:41:35;17.40;81.80
23231;DHT22;11784;49.818;8.632;2022-11-15T13:44:02;17.40;81.70
23231;DHT22;11784;49.818;8.632;2022-11-15T13:46:32;17.40;81.70
23231;DHT22;11784;49.818;8.632;2022-11-15T13:49:01;17.40;82.10
23231;DHT22;11784;49.818;8.632;2022-11-15T13:54:22;17.40;82.10
23231;DHT22;11784;49.818;8.632;2022-11-15T13:56:52;17.40;82.00
23231;DHT22;11784;49.818;8.632;2022-11-15T13:59:33;17.40;81.70
23231;DHT22;11784;49.818;8.632;2022-11-15T14:02:03;17.30;81.80
23231;DHT22;11784;49.818;8.632;2022-11-15T14:04:38;17.40;81.70
23231;DHT22;11784;49.818;8.632;2022-11-15T14:07:04;17.40;82.00
23231;DHT22;11784;49.818;8.632;2022-11-15T14:09:33;17.30;82.10
23231;DHT22;11784;49.818;8.632;2022-11-15T14:12:00;17.40;82.00
23231;DHT22;11784;49.818;8.632;2022-11-15T14:14:29;17.40;81.50
23231;DHT22;11784;49.818;8.632;2022-11-15T14:16:57;17.40;82.00
23231;DHT22;11784;49.818;8.632;2022-11-15T14:22:17;17.40;81.90
23231;DHT22;11784;49.818;8.632;2022-11-15T14:24:47;17.40;82.50
23231;DHT22;11784;49.818;8.632;2022-11-15T14:27:30;17.40;81.20
23231;DHT22;11784;49.818;8.632;2022-11-15T14:29:56;17.40;80.90
23231;DHT22;11784;49.818;8.632;2022-11-15T14:32:24;17.40;81.60
23231;DHT22;11784;49.818;8.632;2022-11-15T14:35:01;17.30;82.30
23231;DHT22;11784;49.818;8.632;2022-11-15T14:37:29;17.30;82.80
23231;DHT22;11784;49.818;8.632;2022-11-15T14:40:03;17.30;81.90
23231;DHT22;11784;49.818;8.632;2022-11-15T14:42:30;17.30;82.30
23231;DHT22;11784;49.818;8.632;2022-11-15T14:44:56;17.30;82.90
23231;DHT22;11784;49.818;8.632;2022-11-15T14:47:21;17.20;83.10
23231;DHT22;11784;49.818;8.632;2022-11-15T14:49:47;17.20;83.40
23231;DHT22;11784;49.818;8.632;2022-11-15T14:52:29;17.20;84.50
23231;DHT22;11784;49.818;8.632;2022-11-15T14:54:59;17.20;85.40
23231;DHT22;11784;49.818;8.632;2022-11-15T14:57:24;17.10;85.60
23231;DHT22;11784;49.818;8.632;2022-11-15T14:59:50;17.10;85.40
23231;DHT22;11784;49.818;8.632;2022-11-15T15:02:20;17.10;86.00
23231;DHT22;11784;49.818;8.632;2022-11-15T15:04:47;17.00;86.50
23231;DHT22;11784;49.818;8.632;2022-11-15T15:07:13;17.00;86.90
23231;DHT22;11784;49.818;8.632;2022-11-15T15:09:39;17.00;86.90
23231;DHT22;11784;49.818;8.632;2022-11-15T15:12:11;17.00;86.20
23231;DHT22;11784;49.818;8.632;2022-11-15T15:14:38;16.90;86.20
23231;DHT22;11784;49.818;8.632;2022-11-15T15:17:04;16.80;86.70
23231;DHT22;11784;49.818;8.632;2022-11-15T15:19:30;16.80;87.20
23231;DHT22;11784;49.818;8.632;2022-11-15T15:21:55;16.80;87.90
23231;DHT22;11784;49.818;8.632;2022-11-15T15:24:21;16.70;88.00
23231;DHT22;11784;49.818;8.632;2022-11-15T15:26:46;16.70;88.20
23231;DHT22;11784;49.818;8.632;2022-11-15T15:29:12;16.70;88.10
23231;DHT22;11784;49.818;8.632;2022-11-15T15:31:38;16.70;88.20
23231;DHT22;11784;49.818;8.632;2022-11-15T15:34:03;16.70;87.80
23231;DHT22;11784;49.818;8.632;2022-11-15T15:36:29;16.60;87.60
23231;DHT22;11784;49.818;8.632;2022-11-15T15:38:55;16.60;87.40
23231;DHT22;11784;49.818;8.632;2022-11-15T15:41:20;16.60;86.80
23231;DHT22;11784;49.818;8.632;2022-11-15T15:43:46;16.60;86.40
23231;DHT22;11784;49.818;8.632;2022-11-15T15:46:15;16.50;86.10
23231;DHT22;11784;49.818;8.632;2022-11-15T15:48:42;16.50;86.70
23231;DHT22;11784;49.818;8.632;2022-11-15T15:51:07;16.50;87.30
23231;DHT22;11784;49.818;8.632;2022-11-15T15:53:33;16.50;86.20
23231;DHT22;11784;49.818;8.632;2022-11-15T15:55:59;16.50;86.10
23231;DHT22;11784;49.818;8.632;2022-11-15T15:58:25;16.50;86.20
23231;DHT22;11784;49.818;8.632;2022-11-15T16:00:50;16.40;86.40
23231;DHT22;11784;49.818;8.632;2022-11-15T16:03:16;16.40;85.80
23231;DHT22;11784;49.818;8.632;2022-11-15T16:05:41;16.40;86.30
23231;DHT22;11784;49.818;8.632;2022-11-15T16:08:20;16.40;87.30
23231;DHT22;11784;49.818;8.632;2022-11-15T16:10:47;16.40;88.10
23231;DHT22;11784;49.818;8.632;2022-11-15T16:13:13;16.40;88.10
23231;DHT22;11784;49.818;8.632;2022-11-15T16:15:38;16.40;87.60
23231;DHT22;11784;49.818;8.632;2022-11-15T16:18:04;16.30;87.90
23231;DHT22;11784;49.818;8.632;2022-11-15T16:23:06;16.30;88.70
23231;DHT22;11784;49.818;8.632;2022-11-15T16:25:45;16.30;89.10
23231;DHT22;11784;49.818;8.632;2022-11-15T16:31:05;16.20;89.30
23231;DHT22;11784;49.818;8.632;2022-11-15T16:33:31;16.20;88.50
23231;DHT22;11784;49.818;8.632;2022-11-15T16:35:56;16.20;88.30
23231;DHT22;11784;49.818;8.632;2022-11-15T16:38:22;16.10;88.70
23231;DHT22;11784;49.818;8.632;2022-11-15T16:40:48;16.10;88.60
23231;DHT22;11784;49.818;8.632;2022-11-15T16:43:13;16.10;88.80
23231;DHT22;11784;49.818;8.632;2022-11-15T16:45:39;16.10;88.90
23231;DHT22;11784;49.818;8.632;2022-11-15T16:48:05;16.10;88.30
23231;DHT22;11784;49.818;8.632;2022-11-15T16:50:33;16.00;88.50
23231;DHT22;11784;49.818;8.632;2022-11-15T16:53:05;16.10;88.90
23231;DHT22;11784;49.818;8.632;2022-11-15T16:55:31;16.10;89.30
23231;DHT22;11784;49.818;8.632;2022-11-15T16:57:56;16.10;89.20
23231;DHT22;11784;49.818;8.632;2022-11-15T17:00:26;16.00;89.20
23231;DHT22;11784;49.818;8.632;2022-11-15T17:02:52;16.00;89.60
23231;DHT22;11784;49.818;8.632;2022-11-15T17:05:20;16.00;89.70
23231;DHT22;11784;49.818;8.632;2022-11-15T17:07:47;16.00;89.70
23231;DHT22;11784;49.818;8.632;2022-11-15T17:10:15;16.00;89.60
23231;DHT22;11784;49.818;8.632;2022-11-15T17:12:41;16.00;89.40
23231;DHT22;11784;49.818;8.632;2022-11-15T17:15:07;16.00;89.20
23231;DHT22;11784;49.818;8.632;2022-11-15T17:17:32;16.00;89.40
23231;DHT22;11784;49.818;8.632;2022-11-15T17:19:58;15.90;89.70
23231;DHT22;11784;49.818;8.632;2022-11-15T17:22:24;15.90;89.60